Time;durP1;ratioP1;P1;durP2;ratioP2;P2;SDS_P1;SDS_P2;PMS_P1;PMS_P2;Temp;Humidity;BMP_temperature;BMP_pressure;BME280_temperature;BME280_humidity;BME280_pressure;Samples;Min_cycle;Max_cycle;Signal;HPM_P1;HPM_P2
2021/08/27 00:00:17;;;;;;;14.00;3.05;;;15.60;99.90;;;;;;6253211;23;20065;-82
2021/08/27 00:02:43;;;;;;;8.88;2.70;;;15.60;99.90;;;;;;6255728;22;20015;-83
2021/08/27 00:05:09;;;;;;;8.80;2.63;;;15.60;99.90;;;;;;6254093;23;20039;-85
2021/08/27 00:07:35;;;;;;;10.35;2.58;;;15.60;99.90;;;;;;6256406;23;20084;-83
2021/08/27 00:10:00;;;;;;;7.60;2.40;;;15.60;99.90;;;;;;6254585;23;20045;-83
2021/08/27 00:12:26;;;;;;;10.95;2.60;;;15.60;99.90;;;;;;6257340;22;20000;-83
2021/08/27 00:14:51;;;;;;;12.07;2.42;;;15.60;99.90;;;;;;6251107;23;20004;-83
2021/08/27 00:17:17;;;;;;;8.73;2.35;;;15.60;99.90;;;;;;6248333;23;20004;-84
2021/08/27 00:19:42;;;;;;;10.00;2.40;;;15.60;99.90;;;;;;6247372;23;20000;-83
2021/08/27 00:22:08;;;;;;;10.93;2.38;;;15.60;99.90;;;;;;6250350;22;20003;-84
2021/08/27 00:24:34;;;;;;;11.50;2.65;;;15.70;99.90;;;;;;6251513;23;20066;-84
2021/08/27 00:26:59;;;;;;;9.57;2.75;;;15.60;99.90;;;;;;6248629;23;20030;-83
2021/08/27 00:29:25;;;;;;;9.00;2.53;;;15.60;99.90;;;;;;6247847;23;19996;-84
2021/08/27 00:31:51;;;;;;;10.68;2.90;;;15.60;99.90;;;;;;6249884;22;20366;-85
2021/08/27 00:34:16;;;;;;;12.93;4.40;;;15.60;99.90;;;;;;6251236;22;20024;-83
2021/08/27 00:36:42;;;;;;;15.63;4.00;;;15.60;99.90;;;;;;6249107;23;20376;-83
2021/08/27 00:39:07;;;;;;;9.13;2.67;;;15.50;99.90;;;;;;6248371;23;20018;-84
2021/08/27 00:41:33;;;;;;;12.07;2.90;;;15.50;99.90;;;;;;6250370;23;20012;-83
2021/08/27 00:43:59;;;;;;;12.05;2.50;;;15.50;99.90;;;;;;6277448;22;20122;-85
2021/08/27 00:46:24;;;;;;;7.88;2.58;;;15.50;99.90;;;;;;6282266;22;20030;-87
2021/08/27 00:48:50;;;;;;;9.80;2.92;;;15.40;99.90;;;;;;6281997;22;20431;-85
2021/08/27 00:51:15;;;;;;;11.02;2.67;;;15.40;99.90;;;;;;6282636;22;19992;-86
2021/08/27 00:53:41;;;;;;;10.30;2.53;;;15.40;99.90;;;;;;6254573;22;20003;-86
2021/08/27 00:56:07;;;;;;;5.75;1.90;;;15.40;99.90;;;;;;6254261;22;20018;-86
2021/08/27 00:58:33;;;;;;;11.90;2.30;;;15.30;99.90;;;;;;6282822;22;20008;-86
2021/08/27 01:00:59;;;;;;;6.80;2.00;;;15.30;99.90;;;;;;6257222;22;20007;-86
2021/08/27 01:03:24;;;;;;;8.52;1.83;;;15.30;99.90;;;;;;6262099;22;20304;-84
2021/08/27 01:06:22;;;;;;;8.75;2.13;;;15.40;99.90;;;;;;6288771;22;20023;-86
2021/08/27 01:09:03;;;;;;;7.97;1.65;;;15.30;99.90;;;;;;6246307;22;20042;-83
2021/08/27 01:11:37;;;;;;;8.48;2.75;;;15.30;99.90;;;;;;6276638;22;20051;-84
2021/08/27 01:14:10;;;;;;;8.93;2.47;;;15.30;99.90;;;;;;6250345;22;20323;-83
2021/08/27 01:16:46;;;;;;;6.97;2.17;;;15.30;99.90;;;;;;6249819;22;20328;-83
2021/08/27 01:19:12;;;;;;;8.85;1.73;;;15.20;99.90;;;;;;6277201;22;20061;-83
2021/08/27 01:22:07;;;;;;;5.45;1.58;;;15.20;99.90;;;;;;6278513;22;20007;-84
2021/08/27 01:24:33;;;;;;;6.57;1.95;;;15.20;99.90;;;;;;6277752;22;20006;-83
2021/08/27 01:27:04;;;;;;;7.63;1.98;;;15.20;99.90;;;;;;6248761;22;20083;-83
2021/08/27 01:29:54;;;;;;;10.73;2.38;;;15.20;99.90;;;;;;6275886;22;20052;-83
2021/08/27 01:32:59;;;;;;;10.02;2.30;;;15.10;99.90;;;;;;6249324;22;20454;-84
2021/08/27 01:35:29;;;;;;;10.75;2.65;;;14.90;99.90;;;;;;6249708;22;20002;-83
2021/08/27 01:37:54;;;;;;;;;;;14.90;99.90;;;;;;6277996;22;19996;-84
2021/08/27 01:40:22;;;;;;;12.18;2.38;;;14.80;99.90;;;;;;6275807;22;20181;-83
2021/08/27 01:42:49;;;;;;;9.15;2.45;;;14.80;99.90;;;;;;6276423;22;20083;-85
2021/08/27 01:45:17;;;;;;;7.78;2.17;;;14.90;99.90;;;;;;6248017;22;19999;-82
2021/08/27 01:47:44;;;;;;;9.70;1.88;;;14.80;99.90;;;;;;6248687;22;20406;-83
2021/08/27 01:50:12;;;;;;;8.48;1.88;;;14.90;99.90;;;;;;6274449;22;19996;-82
2021/08/27 01:52:39;;;;;;;9.82;2.47;;;14.90;99.90;;;;;;6247962;22;20011;-82
2021/08/27 01:55:07;;;;;;;11.30;2.78;;;15.00;99.90;;;;;;6247436;22;20668;-83
2021/08/27 01:57:34;;;;;;;6.72;1.77;;;14.90;99.90;;;;;;6247855;22;20014;-84
2021/08/27 02:00:01;;;;;;;8.93;3.80;;;15.00;99.90;;;;;;6247160;22;20469;-82
2021/08/27 02:02:27;;;;;;;13.50;2.97;;;15.00;99.90;;;;;;6249623;22;20000;-84
2021/08/27 02:04:58;;;;;;;13.65;2.15;;;15.00;99.90;;;;;;6250975;22;20007;-84
2021/08/27 02:07:24;;;;;;;9.70;2.20;;;15.00;99.90;;;;;;6278421;22;20011;-82
2021/08/27 02:09:54;;;;;;;11.43;2.25;;;15.00;99.90;;;;;;6249816;22;20000;-83
2021/08/27 02:12:21;;;;;;;8.07;1.92;;;15.00;99.90;;;;;;6250917;22;20003;-84
2021/08/27 02:14:50;;;;;;;9.25;2.33;;;15.10;99.90;;;;;;6250695;22;20048;-82
2021/08/27 02:17:16;;;;;;;9.85;2.15;;;15.00;99.90;;;;;;6251085;22;20004;-84
2021/08/27 02:19:43;;;;;;;10.90;2.72;;;15.10;99.90;;;;;;6277824;22;20027;-83
2021/08/27 02:22:13;;;;;;;7.80;2.03;;;15.10;99.90;;;;;;6278254;22;20000;-83
2021/08/27 02:24:51;;;;;;;9.65;2.10;;;15.00;99.90;;;;;;6278177;22;20039;-85
2021/08/27 02:27:19;;;;;;;7.28;2.38;;;15.00;99.90;;;;;;6279349;22;20410;-83
2021/08/27 02:29:46;;;;;;;9.82;2.30;;;15.00;99.90;;;;;;6251081;22;20095;-84
2021/08/27 02:32:12;;;;;;;8.02;2.15;;;15.00;99.90;;;;;;6278827;22;20000;-85
2021/08/27 02:34:42;;;;;;;11.27;3.10;;;15.00;99.90;;;;;;6251791;22;20322;-82
2021/08/27 02:37:09;;;;;;;11.45;2.30;;;15.00;99.90;;;;;;6252000;22;20055;-83
2021/08/27 02:39:35;;;;;;;7.25;2.10;;;15.00;99.90;;;;;;6277890;22;19999;-84
2021/08/27 02:42:01;;;;;;;9.93;2.20;;;15.00;99.90;;;;;;6279354;22;20004;-83
2021/08/27 02:44:27;;;;;;;7.07;2.15;;;14.90;99.90;;;;;;6280514;22;20076;-84
2021/08/27 02:46:53;;;;;;;7.35;2.13;;;14.90;99.90;;;;;;6281019;22;20589;-84
2021/08/27 02:49:22;;;;;;;8.00;3.17;;;14.80;99.90;;;;;;6281207;22;20046;-83
2021/08/27 02:52:03;;;;;;;7.03;2.25;;;14.80;99.90;;;;;;6281582;22;20007;-85
2021/08/27 02:54:34;;;;;;;6.80;2.20;;;14.80;99.90;;;;;;6253730;22;20008;-83
2021/08/27 02:57:03;;;;;;;8.68;2.22;;;14.80;99.90;;;;;;6280196;22;20104;-84
2021/08/27 02:59:30;;;;;;;7.22;1.88;;;14.70;99.90;;;;;;6251986;22;20008;-82
2021/08/27 03:01:58;;;;;;;6.32;2.10;;;14.70;99.90;;;;;;6251544;22;20091;-85
2021/08/27 03:04:42;;;;;;;6.93;2.10;;;14.70;99.90;;;;;;6251571;22;20012;-85
2021/08/27 03:07:13;;;;;;;7.38;2.15;;;14.80;99.90;;;;;;6279423;22;20070;-84
2021/08/27 03:09:42;;;;;;;9.73;2.58;;;14.80;99.90;;;;;;6251047;22;20124;-84
2021/08/27 03:12:12;;;;;;;6.72;2.22;;;14.90;99.90;;;;;;6278466;22;19996;-83
2021/08/27 03:14:41;;;;;;;;;;;14.90;99.90;;;;;;6252064;22;20007;-82
2021/08/27 03:17:15;;;;;;;7.40;2.28;;;14.90;99.90;;;;;;6279319;22;20318;-83
2021/08/27 03:19:44;;;;;;;9.00;2.30;;;15.00;99.90;;;;;;6252870;22;20004;-85
2021/08/27 03:22:22;;;;;;;8.43;2.13;;;15.00;99.90;;;;;;6252942;22;20010;-84
2021/08/27 03:24:59;;;;;;;5.93;2.00;;;15.00;99.90;;;;;;6251645;22;20042;-82
2021/08/27 03:27:30;;;;;;;6.55;1.80;;;15.10;99.90;;;;;;6253656;22;20011;-84
2021/08/27 03:30:01;;;;;;;8.35;2.20;;;15.10;99.90;;;;;;6279735;22;19996;-84
2021/08/27 03:32:27;;;;;;;8.60;2.15;;;15.10;99.90;;;;;;6281011;22;20103;-85
2021/08/27 03:34:54;;;;;;;8.38;2.42;;;15.10;99.90;;;;;;6280951;22;20000;-83
2021/08/27 03:37:20;;;;;;;8.90;2.33;;;15.10;99.90;;;;;;6254534;22;20015;-85
2021/08/27 03:39:46;;;;;;;9.45;2.35;;;15.10;99.90;;;;;;6252932;22;20011;-85
2021/08/27 03:42:15;;;;;;;8.95;2.10;;;15.10;99.90;;;;;;6281358;22;20031;-84
2021/08/27 03:44:42;;;;;;;8.77;2.60;;;15.10;99.90;;;;;;6253235;22;20016;-85
2021/08/27 03:47:08;;;;;;;13.18;2.30;;;15.10;99.90;;;;;;6253904;22;19999;-84
2021/08/27 03:49:34;;;;;;;6.40;2.15;;;15.10;99.90;;;;;;6280336;22;20077;-84
2021/08/27 03:52:01;;;;;;;8.23;1.83;;;15.10;99.90;;;;;;6282955;22;19996;-83
2021/08/27 03:54:27;;;;;;;6.40;1.63;;;15.10;99.90;;;;;;6282005;22;20007;-84
2021/08/27 03:56:53;;;;;;;7.82;2.28;;;15.10;99.90;;;;;;6282174;22;20042;-85
2021/08/27 03:59:21;;;;;;;7.72;1.65;;;15.10;99.90;;;;;;6282739;22;20284;-86
2021/08/27 04:01:48;;;;;;;7.57;1.63;;;15.10;99.90;;;;;;6282538;22;20007;-85
2021/08/27 04:04:21;;;;;;;10.07;1.90;;;15.10;99.90;;;;;;6256067;22;20011;-84
2021/08/27 04:06:54;;;;;;;8.95;1.65;;;15.10;99.90;;;;;;6284333;22;19996;-84
2021/08/27 04:09:20;;;;;;;8.25;1.70;;;15.10;99.90;;;;;;6283306;22;20071;-85
2021/08/27 04:11:45;;;;;;;6.60;1.65;;;15.10;99.90;;;;;;6257613;22;20011;-86
2021/08/27 04:14:11;;;;;;;8.57;2.03;;;15.10;99.90;;;;;;6258458;22;20011;-84
2021/08/27 04:16:43;;;;;;;8.13;1.63;;;15.10;99.90;;;;;;6258346;22;20089;-82
2021/08/27 04:19:09;;;;;;;11.23;1.80;;;15.00;99.90;;;;;;6263255;22;20023;-82
2021/08/27 04:21:35;;;;;;;10.45;1.60;;;15.00;99.90;;;;;;6263906;22;20011;-82
2021/08/27 04:24:01;;;;;;;7.10;2.00;;;15.00;99.90;;;;;;6291123;22;20003;-82
2021/08/27 04:26:26;;;;;;;8.82;1.98;;;15.00;99.90;;;;;;6263526;22;20000;-84
2021/08/27 04:28:52;;;;;;;10.55;1.80;;;15.00;99.90;;;;;;6290744;22;19995;-84
2021/08/27 04:31:18;;;;;;;10.57;1.73;;;15.00;99.90;;;;;;6262444;22;20095;-82
2021/08/27 04:33:43;;;;;;;9.82;2.55;;;15.00;99.90;;;;;;6288607;22;20004;-83
2021/08/27 04:36:10;;;;;;;8.90;1.80;;;15.00;99.90;;;;;;6284595;22;20007;-85
2021/08/27 04:38:35;;;;;;;9.13;1.88;;;15.00;99.90;;;;;;6284765;22;20000;-84
2021/08/27 04:41:01;;;;;;;6.15;1.50;;;15.00;99.90;;;;;;6255380;22;20086;-85
2021/08/27 04:43:27;;;;;;;8.90;1.95;;;15.00;99.90;;;;;;6255708;22;20007;-84
2021/08/27 04:45:52;;;;;;;9.48;2.13;;;15.00;99.90;;;;;;6282819;22;20326;-85
2021/08/27 04:48:20;;;;;;;9.95;2.20;;;15.00;99.90;;;;;;6285887;22;20004;-82
2021/08/27 04:50:46;;;;;;;11.02;2.33;;;15.00;99.90;;;;;;6263345;22;20000;-82
2021/08/27 04:53:15;;;;;;;12.00;2.80;;;15.00;99.90;;;;;;6263054;22;20008;-82
2021/08/27 04:55:40;;;;;;;10.25;2.45;;;15.10;99.90;;;;;;6263404;22;20003;-84
2021/08/27 04:58:06;;;;;;;9.18;2.70;;;15.10;99.90;;;;;;6259990;22;20018;-84
2021/08/27 05:00:31;;;;;;;11.63;3.20;;;15.10;99.90;;;;;;6281642;22;20000;-83
2021/08/27 05:02:57;;;;;;;11.80;2.70;;;15.10;99.90;;;;;;6283818;22;20020;-84
2021/08/27 05:05:23;;;;;;;10.88;2.65;;;15.10;99.90;;;;;;6257318;22;19996;-82
2021/08/27 05:07:48;;;;;;;9.18;2.72;;;15.10;99.90;;;;;;6264213;22;20003;-82
2021/08/27 05:10:14;;;;;;;13.15;2.63;;;15.10;99.90;;;;;;6290446;22;20371;-84
2021/08/27 05:12:40;;;;;;;14.98;2.80;;;15.10;99.90;;;;;;6251831;22;20006;-82
2021/08/27 05:15:06;;;;;;;7.55;2.45;;;15.20;99.90;;;;;;6275717;22;19995;-83
2021/08/27 05:17:32;;;;;;;11.25;3.10;;;15.10;99.90;;;;;;6276277;22;20019;-82
2021/08/27 05:19:58;;;;;;;7.82;2.70;;;15.10;99.90;;;;;;6275282;22;20445;-83
2021/08/27 05:22:23;;;;;;;14.13;3.08;;;15.10;99.90;;;;;;6276080;22;20004;-82
2021/08/27 05:24:49;;;;;;;9.02;2.97;;;15.20;99.90;;;;;;6275028;22;20070;-83
2021/08/27 05:27:15;;;;;;;11.70;2.95;;;15.20;99.90;;;;;;6248959;22;20004;-86
2021/08/27 05:29:41;;;;;;;8.98;2.75;;;15.20;99.90;;;;;;6249496;22;20011;-84
2021/08/27 05:32:07;;;;;;;11.98;2.75;;;15.20;99.90;;;;;;6279696;22;20042;-83
2021/08/27 05:34:33;;;;;;;11.65;2.95;;;15.20;99.90;;;;;;6250329;22;20068;-83
2021/08/27 05:36:58;;;;;;;15.27;3.67;;;15.20;99.90;;;;;;6277251;22;20019;-83
2021/08/27 05:39:28;;;;;;;14.55;3.20;;;15.20;99.90;;;;;;6276332;22;20003;-83
2021/08/27 05:41:57;;;;;;;12.32;3.00;;;15.20;99.90;;;;;;6249872;22;20021;-84
2021/08/27 05:44:23;;;;;;;;;;;15.30;99.90;;;;;;6220183;22;20104;-87
2021/08/27 05:46:49;;;;;;;10.55;3.20;;;15.30;99.90;;;;;;6211586;23;19939;-86
2021/08/27 05:49:15;;;;;;;13.07;3.63;;;15.30;99.90;;;;;;6213326;23;20054;-86
2021/08/27 05:51:43;;;;;;;10.27;2.88;;;15.30;99.90;;;;;;6211515;23;20087;-86
2021/08/27 05:54:09;;;;;;;12.82;3.70;;;15.30;99.90;;;;;;6213624;23;20008;-86
2021/08/27 05:56:35;;;;;;;10.95;3.13;;;15.30;99.90;;;;;;6211625;23;20090;-87
2021/08/27 05:59:01;;;;;;;11.52;2.85;;;15.30;99.90;;;;;;6211200;23;20005;-86
2021/08/27 06:01:27;;;;;;;8.60;2.35;;;15.40;99.90;;;;;;6211710;23;20091;-86
2021/08/27 06:03:53;;;;;;;12.25;3.13;;;15.40;99.90;;;;;;6211680;23;20036;-86
2021/08/27 06:06:19;;;;;;;8.68;2.55;;;15.40;99.90;;;;;;6211665;23;20015;-86
2021/08/27 06:08:44;;;;;;;12.07;3.03;;;15.30;99.90;;;;;;6211973;23;20092;-86
2021/08/27 06:11:10;;;;;;;13.15;2.58;;;15.40;99.90;;;;;;6212842;23;20087;-86
2021/08/27 06:13:35;;;;;;;12.68;3.38;;;15.40;99.90;;;;;;6213450;23;20000;-86
2021/08/27 06:16:01;;;;;;;9.85;2.58;;;15.40;99.90;;;;;;6213452;23;20293;-87
2021/08/27 06:18:27;;;;;;;12.45;3.00;;;15.30;99.90;;;;;;6141896;23;20113;-85
2021/08/27 06:20:53;;;;;;;10.75;2.70;;;15.40;99.90;;;;;;6151218;23;20088;-85
2021/08/27 06:23:19;;;;;;;14.77;3.38;;;15.40;99.90;;;;;;6151637;23;20088;-85
2021/08/27 06:25:45;;;;;;;11.52;3.05;;;15.40;99.90;;;;;;6151507;23;20010;-89
2021/08/27 06:28:11;;;;;;;12.73;2.60;;;15.40;99.90;;;;;;6152019;23;20013;-89
2021/08/27 06:30:37;;;;;;;11.40;3.08;;;15.50;99.90;;;;;;6151782;23;20317;-88
2021/08/27 06:33:03;;;;;;;11.07;2.85;;;15.40;99.90;;;;;;6151806;23;20068;-88
2021/08/27 06:35:31;;;;;;;9.93;3.17;;;15.40;99.90;;;;;;6151335;23;20015;-88
2021/08/27 06:47:45;;;;;;;9.60;3.70;;;15.40;99.90;;;;;;6093483;23;20077;-89
2021/08/27 06:50:11;;;;;;;9.45;3.15;;;15.50;99.90;;;;;;6185379;23;20021;-88
2021/08/27 06:52:37;;;;;;;11.32;3.80;;;15.50;99.90;;;;;;6186335;23;20009;-87
2021/08/27 06:55:03;;;;;;;12.18;4.40;;;15.50;99.90;;;;;;6212530;23;20004;-87
2021/08/27 06:57:29;;;;;;;12.45;4.10;;;15.60;99.90;;;;;;6186320;23;20103;-88
2021/08/27 06:59:54;;;;;;;12.27;3.88;;;15.60;99.90;;;;;;6212174;23;20062;-88
2021/08/27 07:02:20;;;;;;;10.43;3.92;;;15.50;99.90;;;;;;6212970;23;20071;-89
2021/08/27 07:04:46;;;;;;;8.43;3.28;;;15.60;99.90;;;;;;6212527;23;20028;-87
2021/08/27 07:07:30;;;;;;;11.02;3.72;;;15.60;99.90;;;;;;6213314;23;20000;-88
2021/08/27 07:09:55;;;;;;;10.02;3.90;;;15.60;99.90;;;;;;6185904;23;20451;-89
2021/08/27 07:12:21;;;;;;;12.40;3.50;;;15.70;99.90;;;;;;6186587;23;20001;-89
2021/08/27 07:22:08;;;;;;;10.48;2.70;;;15.70;99.90;;;;;;6213127;23;20007;-88
2021/08/27 07:24:33;;;;;;;12.68;2.95;;;15.80;99.90;;;;;;6213022;23;20009;-88
2021/08/27 07:26:59;;;;;;;9.80;2.30;;;15.80;99.90;;;;;;6214779;23;20432;-89
2021/08/27 07:29:25;;;;;;;11.15;2.80;;;15.80;99.90;;;;;;6187968;23;20100;-88
2021/08/27 07:31:50;;;;;;;10.20;3.08;;;15.90;99.90;;;;;;6188354;23;20004;-87
2021/08/27 07:34:16;;;;;;;12.80;3.50;;;15.90;99.90;;;;;;6188045;23;20347;-87
2021/08/27 07:36:41;;;;;;;11.13;3.63;;;16.00;99.90;;;;;;6188182;23;20039;-87
2021/08/27 07:39:07;;;;;;;11.98;4.60;;;15.90;99.90;;;;;;6187649;23;20012;-87
2021/08/27 07:41:33;;;;;;;9.65;4.28;;;16.00;99.90;;;;;;6187966;23;20043;-88
2021/08/27 07:43:59;;;;;;;12.32;3.47;;;16.00;99.90;;;;;;6188490;23;20009;-87
2021/08/27 07:46:27;;;;;;;11.57;3.40;;;16.10;99.90;;;;;;6188282;23;20384;-89
2021/08/27 07:48:53;;;;;;;13.30;4.03;;;16.10;99.90;;;;;;6188020;23;20412;-89
2021/08/27 07:51:19;;;;;;;10.43;2.85;;;16.20;99.90;;;;;;6187916;23;20032;-88
2021/08/27 07:53:45;;;;;;;9.10;2.42;;;16.10;99.90;;;;;;6188294;23;20001;-89
2021/08/27 07:56:10;;;;;;;7.13;2.25;;;16.20;99.90;;;;;;6214872;23;20075;-90
2021/08/27 07:58:36;;;;;;;7.00;2.30;;;16.20;99.90;;;;;;6189013;23;20009;-87
2021/08/27 08:01:02;;;;;;;8.85;2.53;;;16.20;99.90;;;;;;6187991;23;20050;-87
2021/08/27 08:03:28;;;;;;;6.65;2.30;;;16.20;99.90;;;;;;6215180;23;20443;-86
2021/08/27 08:05:53;;;;;;;6.20;2.25;;;16.30;99.90;;;;;;6192072;23;20005;-87
2021/08/27 08:08:19;;;;;;;7.63;2.70;;;16.30;99.90;;;;;;6219826;23;20081;-87
2021/08/27 08:10:45;;;;;;;7.40;2.40;;;16.30;99.90;;;;;;6217903;23;20369;-87
2021/08/27 08:13:10;;;;;;;7.88;2.28;;;16.30;99.90;;;;;;6192261;23;20055;-87
2021/08/27 08:15:36;;;;;;;6.15;2.55;;;16.40;99.90;;;;;;6219232;23;20005;-86
2021/08/27 08:18:03;;;;;;;6.70;2.55;;;16.40;99.90;;;;;;6190351;23;20001;-86
2021/08/27 08:20:29;;;;;;;9.20;2.70;;;16.50;99.90;;;;;;6187923;23;20066;-85
2021/08/27 08:22:54;;;;;;;6.53;2.30;;;16.50;99.90;;;;;;6214756;23;20001;-85
2021/08/27 08:25:20;;;;;;;6.32;2.10;;;16.60;99.90;;;;;;6197079;23;20007;-86
2021/08/27 08:27:45;;;;;;;11.23;2.30;;;16.60;99.90;;;;;;6187857;23;20020;-85
2021/08/27 08:30:11;;;;;;;9.30;3.40;;;16.60;99.90;;;;;;6213608;23;20032;-85
2021/08/27 08:32:37;;;;;;;8.10;2.28;;;16.50;99.90;;;;;;6187919;23;20009;-87
2021/08/27 08:35:04;;;;;;;7.85;1.90;;;16.50;99.90;;;;;;6214388;23;20051;-87
2021/08/27 08:37:30;;;;;;;5.63;1.77;;;16.50;99.90;;;;;;6188515;23;20012;-87
2021/08/27 08:39:55;;;;;;;6.53;1.80;;;16.40;99.90;;;;;;6186296;23;20098;-86
2021/08/27 08:42:22;;;;;;;7.30;1.58;;;16.40;99.90;;;;;;6187731;23;20423;-89
2021/08/27 08:44:48;;;;;;;7.28;2.15;;;16.30;99.90;;;;;;6187338;23;20008;-87
2021/08/27 08:47:16;;;;;;;6.93;2.30;;;16.30;99.90;;;;;;6187455;23;20004;-87
2021/08/27 08:49:44;;;;;;;5.70;2.13;;;16.30;99.90;;;;;;6187222;23;20000;-89
2021/08/27 08:52:16;;;;;;;10.95;2.10;;;16.30;99.90;;;;;;6187608;23;20420;-88
2021/08/27 08:54:42;;;;;;;10.90;2.53;;;16.40;99.90;;;;;;6187403;23;20070;-88
2021/08/27 08:57:07;;;;;;;7.28;1.80;;;16.50;99.90;;;;;;6213986;23;20332;-89
2021/08/27 08:59:35;;;;;;;9.38;2.28;;;16.60;99.90;;;;;;6187439;23;20415;-89
2021/08/27 09:02:01;;;;;;;9.35;2.53;;;16.70;99.90;;;;;;6188811;23;20344;-84
2021/08/27 09:04:29;;;;;;;10.70;2.42;;;16.80;99.90;;;;;;6215401;23;20132;-85
2021/08/27 09:06:56;;;;;;;9.35;2.25;;;16.80;99.90;;;;;;6187588;23;20439;-88
2021/08/27 09:09:35;;;;;;;10.57;2.50;;;16.90;99.90;;;;;;6213307;23;20001;-87
2021/08/27 09:12:17;;;;;;;9.10;2.10;;;16.90;99.90;;;;;;6213717;23;20051;-87
2021/08/27 09:15:01;;;;;;;9.75;2.15;;;16.90;99.90;;;;;;6186969;23;20099;-87
2021/08/27 09:17:28;;;;;;;9.00;2.60;;;16.90;99.90;;;;;;6187097;23;20008;-86
2021/08/27 09:19:54;;;;;;;8.40;2.42;;;16.90;99.90;;;;;;6186757;23;20008;-87
2021/08/27 09:22:21;;;;;;;11.20;2.58;;;16.90;99.90;;;;;;6186921;23;20004;-87
2021/08/27 09:25:07;;;;;;;7.53;2.00;;;17.00;99.90;;;;;;6187200;23;20005;-88
2021/08/27 09:27:35;;;;;;;9.68;2.25;;;17.00;99.90;;;;;;6186681;23;20015;-87
2021/08/27 09:30:08;;;;;;;8.25;2.35;;;17.10;99.90;;;;;;6186566;23;20004;-88
2021/08/27 09:32:34;;;;;;;6.75;2.33;;;17.10;99.90;;;;;;6186725;23;20032;-91
2021/08/27 09:35:15;;;;;;;7.60;2.00;;;17.20;99.90;;;;;;6213335;23;20439;-90
2021/08/27 09:37:52;;;;;;;7.68;2.70;;;17.30;99.90;;;;;;6213959;23;20491;-90
2021/08/27 09:40:23;;;;;;;5.13;1.98;;;17.20;99.90;;;;;;6211839;23;20008;-87
2021/08/27 09:42:50;;;;;;;10.65;2.35;;;17.20;99.90;;;;;;6213079;23;20083;-88
2021/08/27 09:45:32;;;;;;;8.10;1.80;;;17.10;99.90;;;;;;6186647;23;20030;-87
2021/08/27 09:48:00;;;;;;;11.15;2.20;;;17.10;99.90;;;;;;6186532;23;20008;-87
2021/08/27 09:50:28;;;;;;;7.72;1.73;;;17.10;99.90;;;;;;6185664;23;20071;-87
2021/08/27 09:53:06;;;;;;;11.70;1.95;;;17.10;99.90;;;;;;6186591;23;20432;-88
2021/08/27 09:55:34;;;;;;;8.00;2.08;;;17.20;99.90;;;;;;6213306;23;20007;-89
2021/08/27 09:58:08;;;;;;;8.95;1.75;;;17.30;99.90;;;;;;6213566;23;20051;-88
2021/08/27 10:00:37;;;;;;;6.20;1.70;;;17.50;99.90;;;;;;6185772;23;20054;-88
2021/08/27 10:03:23;;;;;;;10.38;2.17;;;17.60;99.60;;;;;;6213138;23;20028;-86
2021/08/27 10:05:50;;;;;;;7.63;1.50;;;17.60;99.20;;;;;;6186446;23;20156;-86
2021/08/27 10:08:18;;;;;;;6.30;1.70;;;17.60;98.70;;;;;;6186605;23;20076;-86
2021/08/27 10:10:44;;;;;;;5.95;1.52;;;17.70;98.60;;;;;;6185421;23;20232;-86
2021/08/27 10:13:11;;;;;;;7.13;1.40;;;17.70;98.90;;;;;;6186398;23;20148;-86
2021/08/27 10:15:38;;;;;;;5.35;1.52;;;17.70;98.70;;;;;;6213751;23;20008;-87
2021/08/27 10:18:09;;;;;;;7.00;1.73;;;17.80;98.80;;;;;;6213251;23;20004;-87
2021/08/27 10:20:38;;;;;;;5.43;1.90;;;17.80;98.60;;;;;;6185630;23;20051;-87
2021/08/27 10:23:05;;;;;;;3.83;1.40;;;17.80;98.30;;;;;;6186372;23;20370;-87
2021/08/27 10:25:31;;;;;;;7.80;1.75;;;17.80;98.50;;;;;;6212651;23;20027;-89
2021/08/27 10:27:57;;;;;;;6.32;1.67;;;17.80;98.70;;;;;;6185586;23;20000;-87
2021/08/27 10:30:58;;;;;;;6.95;1.92;;;17.90;98.70;;;;;;6185467;23;20092;-87
2021/08/27 10:33:42;;;;;;;7.15;1.95;;;17.90;98.60;;;;;;6170070;23;20009;-88
2021/08/27 10:36:09;;;;;;;5.57;1.50;;;17.70;99.90;;;;;;6186236;23;20039;-87
2021/08/27 10:38:47;;;;;;;8.35;1.75;;;17.60;99.90;;;;;;6186451;23;20288;-88
2021/08/27 10:41:17;;;;;;;5.88;1.95;;;17.50;99.90;;;;;;6185558;23;20007;-88
2021/08/27 10:43:52;;;;;;;9.40;2.42;;;17.40;99.90;;;;;;6186485;23;20001;-88
2021/08/27 10:46:18;;;;;;;12.40;2.55;;;17.30;99.90;;;;;;6186436;23;20012;-88
2021/08/27 10:48:52;;;;;;;10.32;2.20;;;17.20;99.90;;;;;;6186388;23;19997;-88
2021/08/27 10:51:33;;;;;;;14.93;5.10;;;17.10;99.90;;;;;;6186267;23;20304;-89
2021/08/27 10:53:59;;;;;;;13.48;4.55;;;17.10;99.90;;;;;;6186474;23;20064;-88
2021/08/27 10:56:46;;;;;;;11.55;3.60;;;17.10;99.90;;;;;;6185763;23;20057;-88
2021/08/27 10:59:13;;;;;;;9.10;3.00;;;17.10;99.90;;;;;;6185530;23;20084;-87
2021/08/27 11:01:42;;;;;;;8.60;3.10;;;17.20;99.90;;;;;;6186109;23;20064;-87
2021/08/27 11:04:23;;;;;;;8.70;2.70;;;17.40;99.90;;;;;;6186187;23;20063;-88
2021/08/27 11:06:55;;;;;;;8.15;2.88;;;17.50;99.90;;;;;;6185947;23;20005;-89
2021/08/27 11:09:23;;;;;;;6.78;1.88;;;17.60;99.90;;;;;;6212302;23;19997;-88
2021/08/27 11:12:12;;;;;;;6.45;1.80;;;17.60;99.90;;;;;;6185734;23;20047;-87
2021/08/27 11:14:40;;;;;;;5.43;1.38;;;17.60;99.90;;;;;;6186216;23;20004;-87
2021/08/27 11:17:08;;;;;;;5.85;1.38;;;17.70;99.90;;;;;;6212938;23;20027;-87
2021/08/27 11:19:54;;;;;;;9.45;1.70;;;17.80;99.90;;;;;;6185505;23;20016;-87
2021/08/27 11:22:28;;;;;;;7.78;1.50;;;17.80;99.90;;;;;;6175710;23;20007;-87
2021/08/27 11:25:23;;;;;;;6.63;1.83;;;17.90;99.90;;;;;;6185417;23;20015;-86
2021/08/27 11:28:22;;;;;;;7.35;1.75;;;17.90;99.90;;;;;;6211566;23;20027;-88
2021/08/27 11:31:01;;;;;;;6.40;1.80;;;17.80;99.90;;;;;;6180427;23;20000;-87
2021/08/27 11:33:43;;;;;;;7.60;1.88;;;17.80;99.90;;;;;;6186589;23;20004;-87
2021/08/27 11:36:09;;;;;;;9.60;1.73;;;17.80;99.90;;;;;;6186227;23;20106;-87
2021/08/27 11:38:35;;;;;;;11.45;3.63;;;17.70;99.90;;;;;;6186364;23;20005;-84
2021/08/27 11:41:02;;;;;;;11.30;4.07;;;17.50;99.90;;;;;;6184737;23;20155;-86
2021/08/27 11:43:34;;;;;;;15.68;5.15;;;17.50;99.90;;;;;;6213194;23;20087;-87
2021/08/27 11:46:01;;;;;;;17.10;5.28;;;17.40;99.90;;;;;;6185122;23;20487;-88
2021/08/27 11:48:37;;;;;;;14.05;4.22;;;17.30;99.90;;;;;;6218553;23;20004;-88
2021/08/27 11:51:08;;;;;;;11.38;3.63;;;17.40;99.90;;;;;;6218652;23;20647;-87
2021/08/27 11:53:34;;;;;;;9.70;2.83;;;17.40;99.90;;;;;;6191637;23;20447;-86
2021/08/27 11:56:00;;;;;;;6.28;2.08;;;17.50;99.90;;;;;;6172422;23;20048;-87
2021/08/27 11:58:41;;;;;;;6.55;1.55;;;17.60;99.90;;;;;;6186079;23;20071;-86
2021/08/27 12:01:07;;;;;;;7.88;1.90;;;17.60;99.90;;;;;;6185154;23;20012;-86
2021/08/27 12:03:32;;;;;;;9.05;1.75;;;17.70;99.90;;;;;;6187872;23;20347;-86
2021/08/27 12:05:58;;;;;;;7.10;1.85;;;17.80;99.90;;;;;;6186523;23;20008;-86
2021/08/27 12:08:27;;;;;;;5.90;1.65;;;17.90;99.90;;;;;;6186795;23;20592;-85
2021/08/27 12:10:52;;;;;;;8.65;1.33;;;17.90;99.90;;;;;;6186690;23;19997;-83
2021/08/27 12:13:18;;;;;;;3.70;1.10;;;17.90;99.90;;;;;;6189557;23;20001;-86
2021/08/27 12:15:45;;;;;;;5.63;1.20;;;17.90;99.90;;;;;;6188004;23;20065;-87
2021/08/27 12:18:13;;;;;;;5.57;1.02;;;17.80;99.90;;;;;;6189286;23;20428;-86
2021/08/27 12:20:41;;;;;;;4.43;1.20;;;17.80;99.90;;;;;;6188327;23;20016;-86
2021/08/27 12:23:17;;;;;;;6.55;1.50;;;17.80;99.90;;;;;;6189887;23;20005;-87
2021/08/27 12:26:02;;;;;;;6.40;1.02;;;17.80;99.90;;;;;;6186747;23;20009;-85
2021/08/27 12:28:37;;;;;;;6.82;1.58;;;17.90;99.90;;;;;;6183558;23;20008;-86
2021/08/27 12:31:03;;;;;;;6.38;1.50;;;18.00;99.90;;;;;;6181525;23;20007;-86
2021/08/27 12:33:34;;;;;;;4.65;1.50;;;18.00;99.90;;;;;;6183441;23;20008;-87
2021/08/27 12:36:00;;;;;;;4.90;1.75;;;18.10;99.90;;;;;;6182073;23;20342;-86
2021/08/27 12:38:25;;;;;;;4.35;1.23;;;18.20;99.90;;;;;;6183814;23;20052;-87
2021/08/27 12:40:51;;;;;;;5.10;1.33;;;18.20;99.90;;;;;;6180747;23;20005;-86
2021/08/27 12:43:24;;;;;;;5.93;1.50;;;18.30;99.90;;;;;;6183396;23;20036;-86
2021/08/27 12:45:55;;;;;;;6.03;1.52;;;18.40;99.90;;;;;;6181796;23;20005;-86
2021/08/27 12:48:25;;;;;;;8.48;1.50;;;18.70;99.90;;;;;;6182971;23;20001;-86
2021/08/27 12:51:04;;;;;;;5.85;1.40;;;18.60;99.40;;;;;;6180798;23;20013;-87
2021/08/27 12:53:38;;;;;;;7.65;1.58;;;18.60;99.40;;;;;;6182445;23;20005;-86
2021/08/27 12:56:22;;;;;;;4.10;1.52;;;18.50;99.80;;;;;;6181151;23;20325;-85
2021/08/27 12:58:54;;;;;;;3.97;1.20;;;18.50;99.60;;;;;;6181844;23;20096;-85
2021/08/27 13:01:23;;;;;;;4.13;1.42;;;18.40;99.60;;;;;;6182023;23;20005;-88
2021/08/27 13:03:54;;;;;;;6.30;0.93;;;18.30;99.90;;;;;;6183523;23;20008;-87
2021/08/27 13:06:35;;;;;;;4.25;0.98;;;17.90;99.90;;;;;;6183236;23;19997;-87
2021/08/27 13:09:07;;;;;;;3.20;0.65;;;17.50;99.90;;;;;;6181108;23;20029;-86